sensor_id;sensor_type;location;lat;lon;timestamp;P1;durP1;ratioP1;P2;durP2;ratioP2
67156;SDS011;54086;50.126;8.710;2023-05-28T00:01:02;10.37;;;3.57;;
67156;SDS011;54086;50.126;8.710;2023-05-28T00:03:28;9.23;;;3.80;;
67156;SDS011;54086;50.126;8.710;2023-05-28T00:05:56;10.60;;;3.70;;
67156;SDS011;54086;50.126;8.710;2023-05-28T00:08:22;10.50;;;3.73;;
67156;SDS011;54086;50.126;8.710;2023-05-28T00:10:48;10.63;;;3.42;;
67156;SDS011;54086;50.126;8.710;2023-05-28T00:13:14;10.30;;;3.90;;
67156;SDS011;54086;50.126;8.710;2023-05-28T00:15:42;9.65;;;3.42;;
67156;SDS011;54086;50.126;8.710;2023-05-28T00:18:07;9.00;;;3.23;;
67156;SDS011;54086;50.126;8.710;2023-05-28T00:20:36;12.43;;;3.45;;
67156;SDS011;54086;50.126;8.710;2023-05-28T00:23:02;11.95;;;3.08;;
67156;SDS011;54086;50.126;8.710;2023-05-28T00:25:28;9.87;;;3.27;;
67156;SDS011;54086;50.126;8.710;2023-05-28T00:27:54;9.52;;;3.05;;
67156;SDS011;54086;50.126;8.710;2023-05-28T00:30:19;11.50;;;4.00;;
67156;SDS011;54086;50.126;8.710;2023-05-28T00:32:48;10.70;;;3.25;;
67156;SDS011;54086;50.126;8.710;2023-05-28T00:35:13;12.40;;;3.70;;
67156;SDS011;54086;50.126;8.710;2023-05-28T00:37:39;9.43;;;3.77;;
67156;SDS011;54086;50.126;8.710;2023-05-28T00:40:04;10.87;;;3.93;;
67156;SDS011;54086;50.126;8.710;2023-05-28T00:42:30;8.73;;;3.38;;
67156;SDS011;54086;50.126;8.710;2023-05-28T00:44:56;9.23;;;3.47;;
67156;SDS011;54086;50.126;8.710;2023-05-28T00:47:21;9.38;;;3.28;;
67156;SDS011;54086;50.126;8.710;2023-05-28T00:49:48;10.13;;;3.47;;
67156;SDS011;54086;50.126;8.710;2023-05-28T00:52:15;9.07;;;3.17;;
67156;SDS011;54086;50.126;8.710;2023-05-28T00:54:40;9.75;;;3.70;;
67156;SDS011;54086;50.126;8.710;2023-05-28T00:57:07;8.90;;;3.37;;
67156;SDS011;54086;50.126;8.710;2023-05-28T00:59:33;9.75;;;3.28;;
67156;SDS011;54086;50.126;8.710;2023-05-28T01:01:59;12.63;;;3.75;;
67156;SDS011;54086;50.126;8.710;2023-05-28T01:04:25;9.43;;;3.97;;
67156;SDS011;54086;50.126;8.710;2023-05-28T01:06:54;9.63;;;3.45;;
67156;SDS011;54086;50.126;8.710;2023-05-28T01:09:21;7.88;;;2.90;;
67156;SDS011;54086;50.126;8.710;2023-05-28T01:11:47;10.48;;;3.58;;
67156;SDS011;54086;50.126;8.710;2023-05-28T01:14:17;8.88;;;3.50;;
67156;SDS011;54086;50.126;8.710;2023-05-28T01:16:43;8.70;;;3.40;;
67156;SDS011;54086;50.126;8.710;2023-05-28T01:19:09;9.40;;;3.78;;
67156;SDS011;54086;50.126;8.710;2023-05-28T01:21:41;8.73;;;3.75;;
67156;SDS011;54086;50.126;8.710;2023-05-28T01:24:09;8.00;;;3.50;;
67156;SDS011;54086;50.126;8.710;2023-05-28T01:26:35;10.40;;;3.42;;
67156;SDS011;54086;50.126;8.710;2023-05-28T01:29:08;10.73;;;3.60;;
67156;SDS011;54086;50.126;8.710;2023-05-28T01:31:38;7.97;;;2.80;;
67156;SDS011;54086;50.126;8.710;2023-05-28T01:34:03;10.33;;;4.17;;
67156;SDS011;54086;50.126;8.710;2023-05-28T01:36:33;8.50;;;2.87;;
67156;SDS011;54086;50.126;8.710;2023-05-28T01:39:02;11.02;;;3.50;;
67156;SDS011;54086;50.126;8.710;2023-05-28T01:41:30;8.73;;;3.22;;
67156;SDS011;54086;50.126;8.710;2023-05-28T01:43:56;10.43;;;3.80;;
67156;SDS011;54086;50.126;8.710;2023-05-28T01:46:23;8.25;;;3.33;;
67156;SDS011;54086;50.126;8.710;2023-05-28T01:48:51;11.60;;;3.93;;
67156;SDS011;54086;50.126;8.710;2023-05-28T01:51:21;11.18;;;3.55;;
67156;SDS011;54086;50.126;8.710;2023-05-28T01:53:48;8.98;;;3.38;;
67156;SDS011;54086;50.126;8.710;2023-05-28T01:56:13;8.43;;;3.17;;
67156;SDS011;54086;50.126;8.710;2023-05-28T01:58:39;9.07;;;3.40;;
67156;SDS011;54086;50.126;8.710;2023-05-28T02:01:27;8.15;;;3.35;;
67156;SDS011;54086;50.126;8.710;2023-05-28T02:03:55;11.45;;;3.50;;
67156;SDS011;54086;50.126;8.710;2023-05-28T02:06:21;10.43;;;3.50;;
67156;SDS011;54086;50.126;8.710;2023-05-28T02:08:47;13.25;;;4.43;;
67156;SDS011;54086;50.126;8.710;2023-05-28T02:11:12;9.60;;;3.72;;
67156;SDS011;54086;50.126;8.710;2023-05-28T02:13:38;11.37;;;3.50;;
67156;SDS011;54086;50.126;8.710;2023-05-28T02:16:04;10.15;;;3.47;;
67156;SDS011;54086;50.126;8.710;2023-05-28T02:18:31;9.97;;;2.97;;
67156;SDS011;54086;50.126;8.710;2023-05-28T02:21:01;13.05;;;3.42;;
67156;SDS011;54086;50.126;8.710;2023-05-28T02:23:27;11.23;;;3.60;;
67156;SDS011;54086;50.126;8.710;2023-05-28T02:25:52;9.20;;;3.40;;
67156;SDS011;54086;50.126;8.710;2023-05-28T02:28:18;9.20;;;3.20;;
67156;SDS011;54086;50.126;8.710;2023-05-28T02:30:43;11.10;;;3.60;;
67156;SDS011;54086;50.126;8.710;2023-05-28T02:33:08;9.27;;;3.80;;
67156;SDS011;54086;50.126;8.710;2023-05-28T02:35:34;11.20;;;3.30;;
67156;SDS011;54086;50.126;8.710;2023-05-28T02:38:00;8.43;;;3.45;;
67156;SDS011;54086;50.126;8.710;2023-05-28T02:40:26;9.33;;;3.10;;
67156;SDS011;54086;50.126;8.710;2023-05-28T02:42:51;8.15;;;3.15;;
67156;SDS011;54086;50.126;8.710;2023-05-28T02:45:17;10.63;;;3.33;;
67156;SDS011;54086;50.126;8.710;2023-05-28T02:47:42;9.00;;;3.77;;
67156;SDS011;54086;50.126;8.710;2023-05-28T02:50:07;8.80;;;3.57;;
67156;SDS011;54086;50.126;8.710;2023-05-28T02:52:33;11.35;;;3.65;;
67156;SDS011;54086;50.126;8.710;2023-05-28T02:54:59;10.00;;;3.67;;
67156;SDS011;54086;50.126;8.710;2023-05-28T02:57:27;13.90;;;3.70;;
67156;SDS011;54086;50.126;8.710;2023-05-28T02:59:55;10.13;;;4.00;;
67156;SDS011;54086;50.126;8.710;2023-05-28T03:02:21;9.80;;;3.40;;
67156;SDS011;54086;50.126;8.710;2023-05-28T03:04:46;9.87;;;3.30;;
67156;SDS011;54086;50.126;8.710;2023-05-28T03:07:12;10.05;;;3.35;;
67156;SDS011;54086;50.126;8.710;2023-05-28T03:09:37;9.50;;;3.17;;
67156;SDS011;54086;50.126;8.710;2023-05-28T03:12:03;10.23;;;3.87;;
67156;SDS011;54086;50.126;8.710;2023-05-28T03:14:28;13.05;;;4.03;;
67156;SDS011;54086;50.126;8.710;2023-05-28T03:16:54;12.40;;;3.60;;
67156;SDS011;54086;50.126;8.710;2023-05-28T03:19:19;7.70;;;3.00;;
67156;SDS011;54086;50.126;8.710;2023-05-28T03:21:45;7.68;;;3.10;;
67156;SDS011;54086;50.126;8.710;2023-05-28T03:24:10;10.63;;;3.27;;
67156;SDS011;54086;50.126;8.710;2023-05-28T03:26:36;7.60;;;2.90;;
67156;SDS011;54086;50.126;8.710;2023-05-28T03:29:02;11.40;;;3.70;;
67156;SDS011;54086;50.126;8.710;2023-05-28T03:31:28;8.70;;;3.10;;
67156;SDS011;54086;50.126;8.710;2023-05-28T03:33:54;10.70;;;4.03;;
67156;SDS011;54086;50.126;8.710;2023-05-28T03:36:20;9.15;;;3.50;;
67156;SDS011;54086;50.126;8.710;2023-05-28T03:38:46;10.50;;;3.37;;
67156;SDS011;54086;50.126;8.710;2023-05-28T03:41:11;11.00;;;3.63;;
67156;SDS011;54086;50.126;8.710;2023-05-28T03:43:37;10.27;;;3.83;;
67156;SDS011;54086;50.126;8.710;2023-05-28T03:46:02;10.43;;;3.83;;
67156;SDS011;54086;50.126;8.710;2023-05-28T03:48:27;6.63;;;2.97;;
67156;SDS011;54086;50.126;8.710;2023-05-28T03:50:53;9.77;;;3.70;;
67156;SDS011;54086;50.126;8.710;2023-05-28T03:53:18;10.03;;;3.47;;
67156;SDS011;54086;50.126;8.710;2023-05-28T03:55:44;8.80;;;3.23;;
67156;SDS011;54086;50.126;8.710;2023-05-28T03:58:09;10.10;;;3.80;;
67156;SDS011;54086;50.126;8.710;2023-05-28T04:00:39;10.27;;;3.67;;
67156;SDS011;54086;50.126;8.710;2023-05-28T04:03:04;9.13;;;3.80;;
67156;SDS011;54086;50.126;8.710;2023-05-28T04:05:30;10.95;;;3.60;;
67156;SDS011;54086;50.126;8.710;2023-05-28T04:07:56;10.70;;;4.10;;
67156;SDS011;54086;50.126;8.710;2023-05-28T04:10:21;11.10;;;3.80;;
67156;SDS011;54086;50.126;8.710;2023-05-28T04:12:46;10.30;;;4.07;;
67156;SDS011;54086;50.126;8.710;2023-05-28T04:15:12;12.13;;;3.47;;
67156;SDS011;54086;50.126;8.710;2023-05-28T04:17:37;9.43;;;3.40;;
67156;SDS011;54086;50.126;8.710;2023-05-28T04:20:03;11.77;;;3.73;;
67156;SDS011;54086;50.126;8.710;2023-05-28T04:22:32;9.15;;;3.58;;
67156;SDS011;54086;50.126;8.710;2023-05-28T04:24:59;10.00;;;3.90;;
67156;SDS011;54086;50.126;8.710;2023-05-28T04:27:24;11.13;;;3.53;;
67156;SDS011;54086;50.126;8.710;2023-05-28T04:29:49;11.93;;;4.88;;
67156;SDS011;54086;50.126;8.710;2023-05-28T04:32:17;10.93;;;3.93;;
67156;SDS011;54086;50.126;8.710;2023-05-28T04:34:42;11.77;;;3.80;;
67156;SDS011;54086;50.126;8.710;2023-05-28T04:37:08;12.13;;;5.33;;
67156;SDS011;54086;50.126;8.710;2023-05-28T04:39:33;9.97;;;3.73;;
67156;SDS011;54086;50.126;8.710;2023-05-28T04:41:59;8.95;;;3.65;;
67156;SDS011;54086;50.126;8.710;2023-05-28T04:44:28;10.27;;;3.83;;
67156;SDS011;54086;50.126;8.710;2023-05-28T04:46:55;11.57;;;3.57;;
67156;SDS011;54086;50.126;8.710;2023-05-28T04:49:23;9.95;;;3.20;;
67156;SDS011;54086;50.126;8.710;2023-05-28T04:51:49;9.13;;;3.53;;
67156;SDS011;54086;50.126;8.710;2023-05-28T04:54:15;8.07;;;3.37;;
67156;SDS011;54086;50.126;8.710;2023-05-28T04:56:40;9.03;;;3.33;;
67156;SDS011;54086;50.126;8.710;2023-05-28T04:59:06;9.63;;;3.60;;
67156;SDS011;54086;50.126;8.710;2023-05-28T05:01:34;11.33;;;3.70;;
67156;SDS011;54086;50.126;8.710;2023-05-28T05:04:00;9.10;;;3.40;;
67156;SDS011;54086;50.126;8.710;2023-05-28T05:06:26;9.70;;;2.90;;
67156;SDS011;54086;50.126;8.710;2023-05-28T05:08:51;10.30;;;3.40;;
67156;SDS011;54086;50.126;8.710;2023-05-28T05:11:18;8.27;;;3.30;;
67156;SDS011;54086;50.126;8.710;2023-05-28T05:13:44;11.02;;;3.70;;
67156;SDS011;54086;50.126;8.710;2023-05-28T05:16:09;10.57;;;3.70;;
67156;SDS011;54086;50.126;8.710;2023-05-28T05:18:35;11.73;;;3.70;;
67156;SDS011;54086;50.126;8.710;2023-05-28T05:21:01;9.20;;;3.40;;
67156;SDS011;54086;50.126;8.710;2023-05-28T05:23:26;11.10;;;3.77;;
67156;SDS011;54086;50.126;8.710;2023-05-28T05:25:52;11.27;;;3.40;;
67156;SDS011;54086;50.126;8.710;2023-05-28T05:28:17;9.97;;;3.03;;
67156;SDS011;54086;50.126;8.710;2023-05-28T05:30:43;9.68;;;3.20;;
67156;SDS011;54086;50.126;8.710;2023-05-28T05:33:09;9.40;;;3.53;;
67156;SDS011;54086;50.126;8.710;2023-05-28T05:35:34;10.17;;;3.60;;
67156;SDS011;54086;50.126;8.710;2023-05-28T05:38:00;14.63;;;3.77;;
67156;SDS011;54086;50.126;8.710;2023-05-28T05:40:26;9.07;;;3.90;;
67156;SDS011;54086;50.126;8.710;2023-05-28T05:42:52;9.65;;;3.42;;
67156;SDS011;54086;50.126;8.710;2023-05-28T05:45:17;8.70;;;3.03;;
67156;SDS011;54086;50.126;8.710;2023-05-28T05:47:43;10.13;;;3.35;;
67156;SDS011;54086;50.126;8.710;2023-05-28T05:50:10;12.13;;;4.03;;
67156;SDS011;54086;50.126;8.710;2023-05-28T05:52:36;7.95;;;3.60;;
67156;SDS011;54086;50.126;8.710;2023-05-28T05:55:01;9.87;;;3.57;;
67156;SDS011;54086;50.126;8.710;2023-05-28T05:57:27;11.00;;;3.80;;
67156;SDS011;54086;50.126;8.710;2023-05-28T05:59:53;9.73;;;3.07;;
67156;SDS011;54086;50.126;8.710;2023-05-28T06:02:19;10.60;;;3.33;;
67156;SDS011;54086;50.126;8.710;2023-05-28T06:04:45;9.83;;;4.00;;
67156;SDS011;54086;50.126;8.710;2023-05-28T06:07:10;10.70;;;3.50;;
67156;SDS011;54086;50.126;8.710;2023-05-28T06:09:35;9.05;;;3.80;;
67156;SDS011;54086;50.126;8.710;2023-05-28T06:12:01;8.63;;;3.40;;
67156;SDS011;54086;50.126;8.710;2023-05-28T06:14:26;9.97;;;3.77;;
67156;SDS011;54086;50.126;8.710;2023-05-28T06:16:52;9.77;;;3.50;;
67156;SDS011;54086;50.126;8.710;2023-05-28T06:19:18;13.13;;;4.73;;
67156;SDS011;54086;50.126;8.710;2023-05-28T06:21:43;9.07;;;3.40;;
67156;SDS011;54086;50.126;8.710;2023-05-28T06:24:08;9.93;;;3.40;;
67156;SDS011;54086;50.126;8.710;2023-05-28T06:26:34;8.87;;;3.67;;
67156;SDS011;54086;50.126;8.710;2023-05-28T06:28:59;8.60;;;3.17;;
67156;SDS011;54086;50.126;8.710;2023-05-28T06:31:25;9.40;;;3.30;;
67156;SDS011;54086;50.126;8.710;2023-05-28T06:33:50;8.60;;;3.03;;
67156;SDS011;54086;50.126;8.710;2023-05-28T06:36:15;13.27;;;5.07;;
67156;SDS011;54086;50.126;8.710;2023-05-28T06:38:42;10.57;;;3.47;;
67156;SDS011;54086;50.126;8.710;2023-05-28T06:41:08;10.47;;;3.57;;
67156;SDS011;54086;50.126;8.710;2023-05-28T06:43:33;10.40;;;3.40;;
67156;SDS011;54086;50.126;8.710;2023-05-28T06:45:59;11.25;;;3.80;;
67156;SDS011;54086;50.126;8.710;2023-05-28T06:48:25;8.63;;;2.93;;
67156;SDS011;54086;50.126;8.710;2023-05-28T06:50:50;9.38;;;3.60;;
67156;SDS011;54086;50.126;8.710;2023-05-28T06:53:15;8.37;;;3.43;;
67156;SDS011;54086;50.126;8.710;2023-05-28T06:55:41;11.57;;;3.93;;
67156;SDS011;54086;50.126;8.710;2023-05-28T06:58:06;9.73;;;3.80;;
67156;SDS011;54086;50.126;8.710;2023-05-28T07:00:32;9.83;;;3.50;;
67156;SDS011;54086;50.126;8.710;2023-05-28T07:02:57;8.77;;;3.33;;
67156;SDS011;54086;50.126;8.710;2023-05-28T07:05:22;12.57;;;4.10;;
67156;SDS011;54086;50.126;8.710;2023-05-28T07:07:48;8.93;;;3.80;;
67156;SDS011;54086;50.126;8.710;2023-05-28T07:10:14;11.83;;;3.80;;
67156;SDS011;54086;50.126;8.710;2023-05-28T07:12:39;10.00;;;4.17;;
67156;SDS011;54086;50.126;8.710;2023-05-28T07:15:05;12.23;;;3.40;;
67156;SDS011;54086;50.126;8.710;2023-05-28T07:17:31;9.23;;;3.80;;
67156;SDS011;54086;50.126;8.710;2023-05-28T07:19:57;9.53;;;3.50;;
67156;SDS011;54086;50.126;8.710;2023-05-28T07:22:22;7.97;;;3.40;;
67156;SDS011;54086;50.126;8.710;2023-05-28T07:24:49;8.70;;;3.38;;
67156;SDS011;54086;50.126;8.710;2023-05-28T07:27:14;10.15;;;3.28;;
67156;SDS011;54086;50.126;8.710;2023-05-28T07:29:40;8.33;;;3.17;;
67156;SDS011;54086;50.126;8.710;2023-05-28T07:32:05;9.47;;;3.33;;
67156;SDS011;54086;50.126;8.710;2023-05-28T07:34:31;8.68;;;3.53;;
67156;SDS011;54086;50.126;8.710;2023-05-28T07:36:56;8.47;;;3.53;;
67156;SDS011;54086;50.126;8.710;2023-05-28T07:39:22;11.63;;;3.10;;
67156;SDS011;54086;50.126;8.710;2023-05-28T07:41:47;8.13;;;3.17;;
67156;SDS011;54086;50.126;8.710;2023-05-28T07:44:13;10.70;;;3.10;;
67156;SDS011;54086;50.126;8.710;2023-05-28T07:46:40;10.00;;;3.53;;
67156;SDS011;54086;50.126;8.710;2023-05-28T07:49:05;8.87;;;3.50;;
67156;SDS011;54086;50.126;8.710;2023-05-28T07:51:31;10.00;;;3.30;;
67156;SDS011;54086;50.126;8.710;2023-05-28T07:53:57;8.55;;;3.42;;
67156;SDS011;54086;50.126;8.710;2023-05-28T07:56:23;9.30;;;3.30;;
67156;SDS011;54086;50.126;8.710;2023-05-28T07:58:48;10.57;;;3.73;;
67156;SDS011;54086;50.126;8.710;2023-05-28T08:01:14;8.45;;;2.92;;
67156;SDS011;54086;50.126;8.710;2023-05-28T08:03:40;10.02;;;3.67;;
67156;SDS011;54086;50.126;8.710;2023-05-28T08:06:06;8.23;;;3.33;;
67156;SDS011;54086;50.126;8.710;2023-05-28T08:08:33;9.50;;;3.50;;
67156;SDS011;54086;50.126;8.710;2023-05-28T08:10:59;10.07;;;3.60;;
67156;SDS011;54086;50.126;8.710;2023-05-28T08:13:24;8.53;;;3.20;;
67156;SDS011;54086;50.126;8.710;2023-05-28T08:15:50;10.13;;;3.55;;
67156;SDS011;54086;50.126;8.710;2023-05-28T08:18:15;8.10;;;3.10;;
67156;SDS011;54086;50.126;8.710;2023-05-28T08:20:41;10.50;;;3.63;;
67156;SDS011;54086;50.126;8.710;2023-05-28T08:23:06;10.25;;;2.95;;
67156;SDS011;54086;50.126;8.710;2023-05-28T08:25:32;9.87;;;3.27;;
67156;SDS011;54086;50.126;8.710;2023-05-28T08:27:58;9.25;;;3.70;;
67156;SDS011;54086;50.126;8.710;2023-05-28T08:30:23;9.57;;;3.60;;
67156;SDS011;54086;50.126;8.710;2023-05-28T08:32:49;10.83;;;3.33;;
67156;SDS011;54086;50.126;8.710;2023-05-28T08:35:14;8.88;;;3.83;;
67156;SDS011;54086;50.126;8.710;2023-05-28T08:37:40;9.38;;;3.38;;
67156;SDS011;54086;50.126;8.710;2023-05-28T08:40:06;10.27;;;4.10;;
67156;SDS011;54086;50.126;8.710;2023-05-28T08:42:34;11.48;;;3.70;;
67156;SDS011;54086;50.126;8.710;2023-05-28T08:45:00;8.43;;;3.60;;
67156;SDS011;54086;50.126;8.710;2023-05-28T08:47:26;9.73;;;3.30;;
67156;SDS011;54086;50.126;8.710;2023-05-28T08:49:56;12.85;;;3.40;;
67156;SDS011;54086;50.126;8.710;2023-05-28T08:52:29;8.55;;;3.38;;
67156;SDS011;54086;50.126;8.710;2023-05-28T08:54:57;11.30;;;3.20;;
67156;SDS011;54086;50.126;8.710;2023-05-28T08:57:23;10.30;;;3.80;;
67156;SDS011;54086;50.126;8.710;2023-05-28T08:59:50;9.50;;;3.80;;
67156;SDS011;54086;50.126;8.710;2023-05-28T09:02:17;9.68;;;3.17;;
67156;SDS011;54086;50.126;8.710;2023-05-28T09:04:45;7.78;;;3.38;;
67156;SDS011;54086;50.126;8.710;2023-05-28T09:07:11;8.97;;;3.37;;
67156;SDS011;54086;50.126;8.710;2023-05-28T09:09:37;10.75;;;3.70;;
67156;SDS011;54086;50.126;8.710;2023-05-28T09:12:04;10.68;;;4.00;;
67156;SDS011;54086;50.126;8.710;2023-05-28T09:14:40;11.15;;;3.25;;
67156;SDS011;54086;50.126;8.710;2023-05-28T09:17:06;10.88;;;3.72;;
67156;SDS011;54086;50.126;8.710;2023-05-28T09:19:36;9.77;;;3.60;;
67156;SDS011;54086;50.126;8.710;2023-05-28T09:22:02;9.75;;;3.20;;
67156;SDS011;54086;50.126;8.710;2023-05-28T09:24:29;9.30;;;3.50;;
67156;SDS011;54086;50.126;8.710;2023-05-28T09:26:56;10.32;;;3.42;;
67156;SDS011;54086;50.126;8.710;2023-05-28T09:29:22;14.38;;;3.60;;
67156;SDS011;54086;50.126;8.710;2023-05-28T09:31:58;10.03;;;3.47;;
67156;SDS011;54086;50.126;8.710;2023-05-28T09:34:25;7.65;;;3.28;;
67156;SDS011;54086;50.126;8.710;2023-05-28T09:36:51;11.43;;;3.47;;
67156;SDS011;54086;50.126;8.710;2023-05-28T09:39:17;13.27;;;3.73;;
67156;SDS011;54086;50.126;8.710;2023-05-28T09:41:42;13.50;;;3.97;;
67156;SDS011;54086;50.126;8.710;2023-05-28T09:44:09;8.37;;;3.40;;
67156;SDS011;54086;50.126;8.710;2023-05-28T09:46:35;9.15;;;3.30;;
67156;SDS011;54086;50.126;8.710;2023-05-28T09:49:02;9.75;;;3.83;;
67156;SDS011;54086;50.126;8.710;2023-05-28T09:51:29;10.37;;;3.80;;
67156;SDS011;54086;50.126;8.710;2023-05-28T09:54:05;10.45;;;3.80;;
67156;SDS011;54086;50.126;8.710;2023-05-28T09:56:33;10.32;;;3.38;;
67156;SDS011;54086;50.126;8.710;2023-05-28T09:59:00;9.13;;;3.42;;
67156;SDS011;54086;50.126;8.710;2023-05-28T10:01:38;10.83;;;3.63;;
67156;SDS011;54086;50.126;8.710;2023-05-28T10:04:09;8.52;;;3.80;;
67156;SDS011;54086;50.126;8.710;2023-05-28T10:06:39;8.88;;;3.40;;
67156;SDS011;54086;50.126;8.710;2023-05-28T10:09:08;8.82;;;3.70;;
67156;SDS011;54086;50.126;8.710;2023-05-28T10:12:23;9.48;;;3.55;;
67156;SDS011;54086;50.126;8.710;2023-05-28T10:14:46;8.73;;;3.17;;
67156;SDS011;54086;50.126;8.710;2023-05-28T10:17:12;9.90;;;3.50;;
67156;SDS011;54086;50.126;8.710;2023-05-28T10:19:38;10.23;;;3.55;;
67156;SDS011;54086;50.126;8.710;2023-05-28T10:22:05;11.77;;;3.85;;
67156;SDS011;54086;50.126;8.710;2023-05-28T10:24:32;7.28;;;3.25;;
67156;SDS011;54086;50.126;8.710;2023-05-28T10:26:58;8.37;;;3.60;;
67156;SDS011;54086;50.126;8.710;2023-05-28T10:29:24;10.02;;;4.00;;
67156;SDS011;54086;50.126;8.710;2023-05-28T10:32:00;9.10;;;4.05;;
67156;SDS011;54086;50.126;8.710;2023-05-28T10:34:35;9.30;;;3.73;;
67156;SDS011;54086;50.126;8.710;2023-05-28T10:37:02;11.30;;;3.90;;
67156;SDS011;54086;50.126;8.710;2023-05-28T10:39:42;8.88;;;3.40;;
67156;SDS011;54086;50.126;8.710;2023-05-28T10:42:13;10.88;;;3.60;;
67156;SDS011;54086;50.126;8.710;2023-05-28T10:45:13;10.85;;;3.65;;
67156;SDS011;54086;50.126;8.710;2023-05-28T10:47:35;9.93;;;3.50;;
67156;SDS011;54086;50.126;8.710;2023-05-28T10:52:33;10.65;;;3.58;;
67156;SDS011;54086;50.126;8.710;2023-05-28T10:55:01;8.85;;;3.58;;
67156;SDS011;54086;50.126;8.710;2023-05-28T10:57:49;9.70;;;3.40;;
67156;SDS011;54086;50.126;8.710;2023-05-28T11:00:23;8.00;;;3.47;;
67156;SDS011;54086;50.126;8.710;2023-05-28T11:02:51;9.30;;;4.18;;
67156;SDS011;54086;50.126;8.710;2023-05-28T11:05:22;9.23;;;3.50;;
67156;SDS011;54086;50.126;8.710;2023-05-28T11:07:49;9.70;;;4.07;;
67156;SDS011;54086;50.126;8.710;2023-05-28T11:10:15;7.90;;;3.20;;
67156;SDS011;54086;50.126;8.710;2023-05-28T11:12:42;9.48;;;3.30;;
67156;SDS011;54086;50.126;8.710;2023-05-28T11:15:10;9.13;;;3.70;;
67156;SDS011;54086;50.126;8.710;2023-05-28T11:17:40;9.88;;;3.72;;
67156;SDS011;54086;50.126;8.710;2023-05-28T11:20:28;7.80;;;3.13;;
67156;SDS011;54086;50.126;8.710;2023-05-28T11:22:54;9.90;;;3.30;;
67156;SDS011;54086;50.126;8.710;2023-05-28T11:25:20;12.27;;;3.40;;
67156;SDS011;54086;50.126;8.710;2023-05-28T11:27:52;8.82;;;3.70;;
67156;SDS011;54086;50.126;8.710;2023-05-28T11:30:19;8.57;;;3.28;;
67156;SDS011;54086;50.126;8.710;2023-05-28T11:32:45;9.32;;;3.70;;
67156;SDS011;54086;50.126;8.710;2023-05-28T11:35:13;8.40;;;3.57;;
67156;SDS011;54086;50.126;8.710;2023-05-28T11:37:40;9.32;;;3.65;;
67156;SDS011;54086;50.126;8.710;2023-05-28T11:40:07;9.65;;;3.63;;
67156;SDS011;54086;50.126;8.710;2023-05-28T11:42:35;10.35;;;3.60;;
67156;SDS011;54086;50.126;8.710;2023-05-28T11:45:02;8.07;;;3.72;;
67156;SDS011;54086;50.126;8.710;2023-05-28T11:47:31;8.50;;;3.63;;
67156;SDS011;54086;50.126;8.710;2023-05-28T11:49:57;14.57;;;3.87;;
67156;SDS011;54086;50.126;8.710;2023-05-28T11:52:25;11.98;;;3.83;;
67156;SDS011;54086;50.126;8.710;2023-05-28T11:54:52;9.90;;;4.00;;
67156;SDS011;54086;50.126;8.710;2023-05-28T11:57:24;10.63;;;4.67;;
67156;SDS011;54086;50.126;8.710;2023-05-28T11:59:54;10.10;;;4.25;;
67156;SDS011;54086;50.126;8.710;2023-05-28T12:05:12;11.02;;;4.53;;
67156;SDS011;54086;50.126;8.710;2023-05-28T12:07:42;8.80;;;4.10;;
67156;SDS011;54086;50.126;8.710;2023-05-28T12:10:10;9.55;;;4.18;;
67156;SDS011;54086;50.126;8.710;2023-05-28T12:12:47;9.90;;;4.13;;
67156;SDS011;54086;50.126;8.710;2023-05-28T12:15:14;10.20;;;4.32;;
67156;SDS011;54086;50.126;8.710;2023-05-28T12:17:40;10.63;;;4.72;;
67156;SDS011;54086;50.126;8.710;2023-05-28T12:22:41;9.95;;;4.25;;
67156;SDS011;54086;50.126;8.710;2023-05-28T12:25:07;10.57;;;3.83;;
67156;SDS011;54086;50.126;8.710;2023-05-28T12:27:33;9.85;;;4.55;;
67156;SDS011;54086;50.126;8.710;2023-05-28T12:29:59;10.70;;;4.32;;
67156;SDS011;54086;50.126;8.710;2023-05-28T12:32:25;10.43;;;4.70;;
67156;SDS011;54086;50.126;8.710;2023-05-28T12:34:51;9.27;;;4.78;;
67156;SDS011;54086;50.126;8.710;2023-05-28T12:37:18;9.93;;;4.70;;
67156;SDS011;54086;50.126;8.710;2023-05-28T12:39:45;9.48;;;4.40;;
67156;SDS011;54086;50.126;8.710;2023-05-28T12:42:11;9.27;;;4.27;;
67156;SDS011;54086;50.126;8.710;2023-05-28T12:44:36;9.88;;;4.45;;
67156;SDS011;54086;50.126;8.710;2023-05-28T12:47:01;10.70;;;4.40;;
67156;SDS011;54086;50.126;8.710;2023-05-28T12:49:27;10.77;;;4.55;;
67156;SDS011;54086;50.126;8.710;2023-05-28T12:51:53;11.50;;;4.50;;
67156;SDS011;54086;50.126;8.710;2023-05-28T12:54:18;9.57;;;4.80;;
67156;SDS011;54086;50.126;8.710;2023-05-28T12:56:44;11.52;;;5.18;;
67156;SDS011;54086;50.126;8.710;2023-05-28T12:59:18;10.33;;;4.30;;
67156;SDS011;54086;50.126;8.710;2023-05-28T13:01:45;10.88;;;4.57;;
67156;SDS011;54086;50.126;8.710;2023-05-28T13:04:10;10.10;;;5.03;;
67156;SDS011;54086;50.126;8.710;2023-05-28T13:06:36;9.40;;;4.43;;
67156;SDS011;54086;50.126;8.710;2023-05-28T13:09:01;8.60;;;4.33;;
67156;SDS011;54086;50.126;8.710;2023-05-28T13:11:28;9.57;;;5.10;;
67156;SDS011;54086;50.126;8.710;2023-05-28T13:13:54;11.27;;;5.45;;
67156;SDS011;54086;50.126;8.710;2023-05-28T13:16:19;9.40;;;4.83;;
67156;SDS011;54086;50.126;8.710;2023-05-28T13:18:45;10.77;;;5.17;;
67156;SDS011;54086;50.126;8.710;2023-05-28T13:21:10;10.00;;;4.60;;
67156;SDS011;54086;50.126;8.710;2023-05-28T13:23:36;10.13;;;4.73;;
67156;SDS011;54086;50.126;8.710;2023-05-28T13:26:01;10.50;;;4.80;;
67156;SDS011;54086;50.126;8.710;2023-05-28T13:28:27;8.48;;;4.70;;
67156;SDS011;54086;50.126;8.710;2023-05-28T13:30:52;9.27;;;4.60;;
67156;SDS011;54086;50.126;8.710;2023-05-28T13:33:18;9.67;;;4.67;;
67156;SDS011;54086;50.126;8.710;2023-05-28T13:35:43;9.75;;;4.55;;
67156;SDS011;54086;50.126;8.710;2023-05-28T13:38:08;9.47;;;4.80;;
67156;SDS011;54086;50.126;8.710;2023-05-28T13:40:34;9.15;;;4.90;;
67156;SDS011;54086;50.126;8.710;2023-05-28T13:43:00;11.13;;;4.60;;
67156;SDS011;54086;50.126;8.710;2023-05-28T13:45:26;9.30;;;4.90;;
67156;SDS011;54086;50.126;8.710;2023-05-28T13:47:51;10.93;;;5.23;;
67156;SDS011;54086;50.126;8.710;2023-05-28T13:50:17;10.93;;;5.00;;
67156;SDS011;54086;50.126;8.710;2023-05-28T13:52:43;10.17;;;4.87;;
67156;SDS011;54086;50.126;8.710;2023-05-28T13:55:09;9.70;;;4.93;;
67156;SDS011;54086;50.126;8.710;2023-05-28T13:57:34;10.18;;;4.85;;
67156;SDS011;54086;50.126;8.710;2023-05-28T13:59:59;11.27;;;4.53;;
67156;SDS011;54086;50.126;8.710;2023-05-28T14:02:31;9.35;;;4.50;;
67156;SDS011;54086;50.126;8.710;2023-05-28T14:04:56;8.97;;;4.70;;
67156;SDS011;54086;50.126;8.710;2023-05-28T14:07:22;10.75;;;4.90;;
67156;SDS011;54086;50.126;8.710;2023-05-28T14:09:47;10.60;;;5.07;;
67156;SDS011;54086;50.126;8.710;2023-05-28T14:12:12;9.03;;;4.47;;
67156;SDS011;54086;50.126;8.710;2023-05-28T14:14:38;11.68;;;4.47;;
67156;SDS011;54086;50.126;8.710;2023-05-28T14:17:03;9.03;;;4.70;;
67156;SDS011;54086;50.126;8.710;2023-05-28T14:19:29;8.93;;;4.43;;
67156;SDS011;54086;50.126;8.710;2023-05-28T14:21:54;11.37;;;5.33;;
67156;SDS011;54086;50.126;8.710;2023-05-28T14:24:20;11.50;;;5.40;;
67156;SDS011;54086;50.126;8.710;2023-05-28T14:26:45;10.07;;;4.40;;
67156;SDS011;54086;50.126;8.710;2023-05-28T14:29:10;8.93;;;4.37;;
67156;SDS011;54086;50.126;8.710;2023-05-28T14:31:37;8.82;;;4.68;;
67156;SDS011;54086;50.126;8.710;2023-05-28T14:34:03;9.43;;;4.70;;
67156;SDS011;54086;50.126;8.710;2023-05-28T14:36:28;9.63;;;4.60;;
67156;SDS011;54086;50.126;8.710;2023-05-28T14:38:53;10.00;;;4.47;;
67156;SDS011;54086;50.126;8.710;2023-05-28T14:41:19;8.63;;;4.80;;
67156;SDS011;54086;50.126;8.710;2023-05-28T14:43:44;8.47;;;4.30;;
67156;SDS011;54086;50.126;8.710;2023-05-28T14:46:10;9.43;;;4.35;;